Wednesday, October 01, 2014
04:05 UTC
  |  Log In   |  Register Free
Airport Search:

Lenawee County Airport
(KADG)

Lenawee County Airport Diagram
No Airport Diagram Available

FAA data valid effective September 18, 2014 - November 13, 2014 (unless otherwise noted).

 
 
 
 
 
 
 
 
 
 
 
 
 
 

Current Aviation Weather for Lenawee County Airport (KADG)

The most recent METAR observation for KADG was updated at: 0309
METAR Summary (Translated METAR)
KADG
010253Z AUTO 03007KT 10SM OVC025 12/09 A3003 RMK AO2 SLP173 T01170089 51008
KUSE
010255Z AUTO 04004KT 9SM OVC036 11/10 A3002 RMK AO2
(15.6 nm SW from KADG)
KDUH
010255Z AUTO 00000KT 10SM CLR 11/09 A3002 RMK AO2
(20.4 nm SE from KADG)
TAF
No TAF information found within 50 nm of KADG
  Airport Weather Conditions for KADG

 Current Weather at ADG
53° F
Overcast
Northeast winds at 8.1 mph
ADG NOAA Radar

Pressure: 30.03 in
Humidity: 83%
Wind: Northeast at 8.1 MPH (7 KT)
Dew Point: 48.0°F
Visibility: 10.00 mi


Airport Weather Forecast for KADG

Translated METAR and TAF for KADG
Translated METAR for KADG (0400 UTC 01 October 2014)
found at http://aviationweather.gov/adds/metars/
 
METAR text: KADG 010353Z AUTO 03007KT 10SM OVC024 11/09 A3003 RMK AO2 SLP173 T01110089
Conditions at: KADG (ADRIAN , MI, US) observed 0353 UTC 01 October 2014
Temperature: 11.1°C (52°F)
Dewpoint: 8.9°C (48°F) [RH = 86%]
Pressure (altimeter): 30.03 inches Hg (1017.0 mb)
[Sea-level pressure: 1017.3 mb]
Winds: from the NNE (30 degrees) at 8 MPH (7 knots; 3.6 m/s)
Visibility: 10 or more miles (16+ km)
Ceiling: 2400 feet AGL
Clouds: overcast cloud deck at 2400 feet AGL
Weather: automated observation with no human augmentation;
there may or may not be significant weather present at this time
Translated TAF for KADG

There is no translated TAF available for this airport

Find All Airport Services Find A Hotel Find A Rental Car Find A Golf Course Find A Restaurant $100 Hamburger



FBO's on the Field
FBO Company Facility Photos Services Transportation Aviation Fuel Prices: Prices include tax
Catering Weather Repair Courtesy Rental Type 100LL JetA JetA+ MOGAS 8087
 
Lenawee County Airport

This FBO has not yet been rated
FS:Avfuel
Last Updated: Aug-28
Login to update fuel prices
SS:
Contact Lenawee County AirportMore FBO Information
 
Add another FBO Facility Photos Catering Weather Repair Courtesy Rental Type 100LL JetA JetA+ MOGAS 8087
Services Transportation Aviation Fuel Prices: Prices include tax


model-print
model-print
model-print
model-print